sensor_id;sensor_type;location;lat;lon;timestamp;pressure;altitude;pressure_sealevel;temperature;humidity
51315;BME280;65787;59.922;10.742;2023-08-07T00:00:52;99762.00;;;26.14;36.04
51315;BME280;65787;59.922;10.742;2023-08-07T00:03:18;99740.28;;;26.12;35.84
51315;BME280;65787;59.922;10.742;2023-08-07T00:05:49;99736.75;;;26.12;36.32
51315;BME280;65787;59.922;10.742;2023-08-07T00:08:16;99723.09;;;26.06;35.85
51315;BME280;65787;59.922;10.742;2023-08-07T00:10:42;99723.38;;;25.96;36.26
51315;BME280;65787;59.922;10.742;2023-08-07T00:13:07;99712.16;;;25.93;36.02
51315;BME280;65787;59.922;10.742;2023-08-07T00:15:32;99708.91;;;25.91;36.50
51315;BME280;65787;59.922;10.742;2023-08-07T00:18:00;99707.28;;;25.89;35.98
51315;BME280;65787;59.922;10.742;2023-08-07T00:20:26;99706.44;;;25.89;35.96
51315;BME280;65787;59.922;10.742;2023-08-07T00:22:51;99706.44;;;25.89;36.10
51315;BME280;65787;59.922;10.742;2023-08-07T00:25:16;99711.47;;;25.87;35.77
51315;BME280;65787;59.922;10.742;2023-08-07T00:27:41;99721.97;;;25.85;35.75
51315;BME280;65787;59.922;10.742;2023-08-07T00:30:07;99719.22;;;25.85;35.72
51315;BME280;65787;59.922;10.742;2023-08-07T00:32:32;99711.63;;;25.82;36.22
51315;BME280;65787;59.922;10.742;2023-08-07T00:34:57;99704.16;;;25.82;35.98
51315;BME280;65787;59.922;10.742;2023-08-07T00:37:23;99712.09;;;25.84;35.96
51315;BME280;65787;59.922;10.742;2023-08-07T00:39:48;99714.22;;;25.87;35.94
51315;BME280;65787;59.922;10.742;2023-08-07T00:42:13;99713.09;;;25.88;36.09
51315;BME280;65787;59.922;10.742;2023-08-07T00:44:38;99709.41;;;25.93;36.17
51315;BME280;65787;59.922;10.742;2023-08-07T00:47:04;99700.94;;;25.89;36.02
51315;BME280;65787;59.922;10.742;2023-08-07T00:49:29;99702.22;;;25.83;36.37
51315;BME280;65787;59.922;10.742;2023-08-07T00:51:55;99689.91;;;25.80;36.19
51315;BME280;65787;59.922;10.742;2023-08-07T00:54:20;99696.53;;;25.79;36.73
51315;BME280;65787;59.922;10.742;2023-08-07T00:56:45;99640.69;;;25.47;36.39
51315;BME280;65787;59.922;10.742;2023-08-07T00:59:12;99683.44;;;25.76;36.96
51315;BME280;65787;59.922;10.742;2023-08-07T01:01:37;99680.69;;;25.76;36.70
51315;BME280;65787;59.922;10.742;2023-08-07T01:04:03;99681.78;;;25.75;36.60
51315;BME280;65787;59.922;10.742;2023-08-07T01:06:28;99669.81;;;25.71;36.87
51315;BME280;65787;59.922;10.742;2023-08-07T01:08:53;99662.16;;;25.68;37.03
51315;BME280;65787;59.922;10.742;2023-08-07T01:11:36;99659.91;;;25.70;37.37
51315;BME280;65787;59.922;10.742;2023-08-07T01:14:07;99653.72;;;25.64;37.69
51315;BME280;65787;59.922;10.742;2023-08-07T01:16:35;99658.94;;;25.66;37.54
51315;BME280;65787;59.922;10.742;2023-08-07T01:19:01;99654.22;;;25.66;37.63
51315;BME280;65787;59.922;10.742;2023-08-07T01:21:28;99656.47;;;25.64;37.81
51315;BME280;65787;59.922;10.742;2023-08-07T01:23:53;99649.19;;;25.60;37.94
51315;BME280;65787;59.922;10.742;2023-08-07T01:26:19;99621.19;;;25.58;37.84
51315;BME280;65787;59.922;10.742;2023-08-07T01:29:04;99633.13;;;25.53;38.15
51315;BME280;65787;59.922;10.742;2023-08-07T01:31:31;99631.00;;;25.50;38.24
51315;BME280;65787;59.922;10.742;2023-08-07T01:33:59;99617.72;;;25.43;38.33
51315;BME280;65787;59.922;10.742;2023-08-07T01:36:27;99614.97;;;25.43;38.04
51315;BME280;65787;59.922;10.742;2023-08-07T01:38:52;99605.22;;;25.37;38.39
51315;BME280;65787;59.922;10.742;2023-08-07T01:41:21;99595.03;;;25.38;38.49
51315;BME280;65787;59.922;10.742;2023-08-07T01:43:47;99585.34;;;25.40;38.03
51315;BME280;65787;59.922;10.742;2023-08-07T01:46:12;99562.38;;;25.36;38.31
51315;BME280;65787;59.922;10.742;2023-08-07T01:48:37;99551.69;;;25.35;38.53
51315;BME280;65787;59.922;10.742;2023-08-07T01:51:03;99537.44;;;25.33;38.17
51315;BME280;65787;59.922;10.742;2023-08-07T01:53:28;99526.94;;;25.35;38.41
51315;BME280;65787;59.922;10.742;2023-08-07T01:55:53;99516.25;;;25.33;37.71
51315;BME280;65787;59.922;10.742;2023-08-07T01:58:19;99506.22;;;25.28;38.73
51315;BME280;65787;59.922;10.742;2023-08-07T02:00:44;99513.19;;;25.26;38.34
51315;BME280;65787;59.922;10.742;2023-08-07T02:03:09;99483.66;;;25.18;38.71
51315;BME280;65787;59.922;10.742;2023-08-07T02:05:34;99489.47;;;25.16;38.15
51315;BME280;65787;59.922;10.742;2023-08-07T02:08:00;99471.81;;;25.08;38.27
51315;BME280;65787;59.922;10.742;2023-08-07T02:10:25;99461.78;;;25.04;38.63
51315;BME280;65787;59.922;10.742;2023-08-07T02:12:51;99461.97;;;25.07;38.22
51315;BME280;65787;59.922;10.742;2023-08-07T02:15:16;99462.28;;;25.06;38.84
51315;BME280;65787;59.922;10.742;2023-08-07T02:17:41;99454.84;;;25.06;38.71
51315;BME280;65787;59.922;10.742;2023-08-07T02:20:07;99447.41;;;25.07;38.46
51315;BME280;65787;59.922;10.742;2023-08-07T02:22:33;99441.41;;;25.05;38.82
51315;BME280;65787;59.922;10.742;2023-08-07T02:24:58;99436.50;;;24.93;38.65
51315;BME280;65787;59.922;10.742;2023-08-07T02:27:23;99425.34;;;24.89;38.99
51315;BME280;65787;59.922;10.742;2023-08-07T02:29:48;99403.44;;;24.76;39.36
51315;BME280;65787;59.922;10.742;2023-08-07T02:32:16;99392.16;;;24.77;38.97
51315;BME280;65787;59.922;10.742;2023-08-07T02:34:41;99384.69;;;24.69;38.97
51315;BME280;65787;59.922;10.742;2023-08-07T02:37:07;99382.19;;;24.59;39.12
51315;BME280;65787;59.922;10.742;2023-08-07T02:39:33;99372.84;;;24.60;38.77
51315;BME280;65787;59.922;10.742;2023-08-07T02:41:58;99355.56;;;24.59;39.01
51315;BME280;65787;59.922;10.742;2023-08-07T02:44:23;99352.00;;;24.59;38.87
51315;BME280;65787;59.922;10.742;2023-08-07T02:46:49;99350.09;;;24.68;38.79
51315;BME280;65787;59.922;10.742;2023-08-07T02:49:14;99343.50;;;24.69;38.66
51315;BME280;65787;59.922;10.742;2023-08-07T02:51:39;99337.78;;;24.57;38.65
51315;BME280;65787;59.922;10.742;2023-08-07T02:54:05;99332.19;;;24.48;38.71
51315;BME280;65787;59.922;10.742;2023-08-07T02:56:30;99327.75;;;24.52;38.50
51315;BME280;65787;59.922;10.742;2023-08-07T02:58:55;99302.19;;;24.51;38.76
51315;BME280;65787;59.922;10.742;2023-08-07T03:01:23;99287.94;;;24.41;38.49
51315;BME280;65787;59.922;10.742;2023-08-07T03:03:48;99282.78;;;24.39;39.08
51315;BME280;65787;59.922;10.742;2023-08-07T03:06:13;99265.94;;;24.32;38.84
51315;BME280;65787;59.922;10.742;2023-08-07T03:08:39;99268.38;;;24.33;38.99
51315;BME280;65787;59.922;10.742;2023-08-07T03:11:04;99264.66;;;24.38;39.19
51315;BME280;65787;59.922;10.742;2023-08-07T03:13:29;99249.19;;;24.42;38.74
51315;BME280;65787;59.922;10.742;2023-08-07T03:16:04;99247.75;;;24.45;38.60
51315;BME280;65787;59.922;10.742;2023-08-07T03:18:30;99239.44;;;24.59;38.41
51315;BME280;65787;59.922;10.742;2023-08-07T03:20:56;99244.78;;;24.64;38.41
51315;BME280;65787;59.922;10.742;2023-08-07T03:23:24;99242.72;;;24.69;38.03
51315;BME280;65787;59.922;10.742;2023-08-07T03:25:50;99234.44;;;24.61;38.30
51315;BME280;65787;59.922;10.742;2023-08-07T03:28:16;99237.53;;;24.59;38.56
51315;BME280;65787;59.922;10.742;2023-08-07T03:30:41;99224.91;;;24.58;38.52
51315;BME280;65787;59.922;10.742;2023-08-07T03:33:07;99231.69;;;24.52;39.01
51315;BME280;65787;59.922;10.742;2023-08-07T03:35:32;99229.75;;;24.52;39.13
51315;BME280;65787;59.922;10.742;2023-08-07T03:37:58;99221.50;;;24.52;38.98
51315;BME280;65787;59.922;10.742;2023-08-07T03:40:23;99224.44;;;24.56;38.77
51315;BME280;65787;59.922;10.742;2023-08-07T03:42:48;99216.50;;;24.54;38.79
51315;BME280;65787;59.922;10.742;2023-08-07T03:45:13;99209.06;;;24.55;39.04
51315;BME280;65787;59.922;10.742;2023-08-07T03:47:39;99193.91;;;24.58;39.03
51315;BME280;65787;59.922;10.742;2023-08-07T03:50:04;99203.13;;;24.62;38.92
51315;BME280;65787;59.922;10.742;2023-08-07T03:52:30;99188.13;;;24.59;39.00
51315;BME280;65787;59.922;10.742;2023-08-07T03:54:55;99192.78;;;24.59;39.16
51315;BME280;65787;59.922;10.742;2023-08-07T03:57:20;99182.94;;;24.66;39.04
51315;BME280;65787;59.922;10.742;2023-08-07T03:59:45;99182.44;;;24.64;38.91
51315;BME280;65787;59.922;10.742;2023-08-07T04:02:11;99168.09;;;24.67;39.05
51315;BME280;65787;59.922;10.742;2023-08-07T04:04:36;99170.84;;;24.67;38.92
51315;BME280;65787;59.922;10.742;2023-08-07T04:07:01;99158.09;;;24.63;38.30
51315;BME280;65787;59.922;10.742;2023-08-07T04:09:27;99151.00;;;24.70;38.60
51315;BME280;65787;59.922;10.742;2023-08-07T04:11:52;99152.13;;;24.69;38.53
51315;BME280;65787;59.922;10.742;2023-08-07T04:14:17;99144.34;;;24.71;38.22
51315;BME280;65787;59.922;10.742;2023-08-07T04:16:42;99130.16;;;24.78;38.13
51315;BME280;65787;59.922;10.742;2023-08-07T04:19:08;99141.31;;;24.82;38.32
51315;BME280;65787;59.922;10.742;2023-08-07T04:21:33;99134.69;;;24.74;38.46
51315;BME280;65787;59.922;10.742;2023-08-07T04:23:58;99126.94;;;24.76;38.09
51315;BME280;65787;59.922;10.742;2023-08-07T04:26:25;99113.84;;;24.73;38.26
51315;BME280;65787;59.922;10.742;2023-08-07T04:28:50;99100.91;;;24.73;38.27
51315;BME280;65787;59.922;10.742;2023-08-07T04:31:15;99093.81;;;24.72;38.11
51315;BME280;65787;59.922;10.742;2023-08-07T04:33:41;99082.53;;;24.74;37.91
51315;BME280;65787;59.922;10.742;2023-08-07T04:36:06;99094.63;;;24.73;38.09
51315;BME280;65787;59.922;10.742;2023-08-07T04:38:31;99090.41;;;24.76;38.04
51315;BME280;65787;59.922;10.742;2023-08-07T04:40:57;99082.34;;;24.79;38.16
51315;BME280;65787;59.922;10.742;2023-08-07T04:43:22;99071.34;;;24.79;37.91
51315;BME280;65787;59.922;10.742;2023-08-07T04:45:47;99072.84;;;24.85;37.79
51315;BME280;65787;59.922;10.742;2023-08-07T04:48:13;99070.25;;;24.89;37.82
51315;BME280;65787;59.922;10.742;2023-08-07T04:50:38;99071.06;;;24.89;37.62
51315;BME280;65787;59.922;10.742;2023-08-07T04:53:04;99067.31;;;24.94;37.56
51315;BME280;65787;59.922;10.742;2023-08-07T04:55:35;99079.78;;;24.91;37.88
51315;BME280;65787;59.922;10.742;2023-08-07T04:58:00;99073.78;;;24.89;38.02
51315;BME280;65787;59.922;10.742;2023-08-07T05:00:26;99070.25;;;24.89;37.88
51315;BME280;65787;59.922;10.742;2023-08-07T05:02:52;99064.13;;;24.83;38.27
51315;BME280;65787;59.922;10.742;2023-08-07T05:05:17;99072.00;;;24.85;38.23
51315;BME280;65787;59.922;10.742;2023-08-07T05:07:47;99080.88;;;24.90;38.40
51315;BME280;65787;59.922;10.742;2023-08-07T05:10:12;99095.63;;;24.95;38.41
51315;BME280;65787;59.922;10.742;2023-08-07T05:12:37;99094.97;;;24.89;39.03
51315;BME280;65787;59.922;10.742;2023-08-07T05:15:02;99085.09;;;24.97;38.16
51315;BME280;65787;59.922;10.742;2023-08-07T05:17:28;99092.22;;;24.89;38.31
51315;BME280;65787;59.922;10.742;2023-08-07T05:19:53;99079.59;;;24.88;38.64
51315;BME280;65787;59.922;10.742;2023-08-07T05:22:18;99084.78;;;24.89;38.80
51315;BME280;65787;59.922;10.742;2023-08-07T05:24:44;99077.50;;;24.93;38.41
51315;BME280;65787;59.922;10.742;2023-08-07T05:27:10;99076.53;;;24.89;38.41
51315;BME280;65787;59.922;10.742;2023-08-07T05:29:36;99077.66;;;24.88;38.21
51315;BME280;65787;59.922;10.742;2023-08-07T05:32:08;99076.69;;;24.84;38.14
51315;BME280;65787;59.922;10.742;2023-08-07T05:34:34;99078.81;;;24.87;38.33
51315;BME280;65787;59.922;10.742;2023-08-07T05:37:00;99079.44;;;24.84;38.46
51315;BME280;65787;59.922;10.742;2023-08-07T05:39:25;99073.97;;;24.93;38.23
51315;BME280;65787;59.922;10.742;2023-08-07T05:41:50;99077.50;;;24.93;38.07
51315;BME280;65787;59.922;10.742;2023-08-07T05:44:18;99071.84;;;24.90;38.14
51315;BME280;65787;59.922;10.742;2023-08-07T05:46:44;99069.25;;;24.93;38.29
51315;BME280;65787;59.922;10.742;2023-08-07T05:49:09;99054.91;;;24.97;37.82
51315;BME280;65787;59.922;10.742;2023-08-07T05:51:34;99049.25;;;24.93;37.94
51315;BME280;65787;59.922;10.742;2023-08-07T05:54:00;99060.06;;;24.89;38.04
51315;BME280;65787;59.922;10.742;2023-08-07T05:56:25;99041.47;;;24.95;37.61
51315;BME280;65787;59.922;10.742;2023-08-07T05:58:50;99028.06;;;25.02;37.67
51315;BME280;65787;59.922;10.742;2023-08-07T06:01:15;99035.19;;;24.95;37.83
51315;BME280;65787;59.922;10.742;2023-08-07T06:03:42;99011.28;;;24.95;37.62
51315;BME280;65787;59.922;10.742;2023-08-07T06:06:08;99015.28;;;24.98;37.64
51315;BME280;65787;59.922;10.742;2023-08-07T06:08:33;99015.63;;;24.96;37.87
51315;BME280;65787;59.922;10.742;2023-08-07T06:10:59;99011.09;;;25.00;37.50
51315;BME280;65787;59.922;10.742;2023-08-07T06:13:28;99009.47;;;24.90;37.50
51315;BME280;65787;59.922;10.742;2023-08-07T06:15:53;99014.66;;;24.92;37.77
51315;BME280;65787;59.922;10.742;2023-08-07T06:18:19;99004.31;;;24.98;38.00
51315;BME280;65787;59.922;10.742;2023-08-07T06:20:44;98996.38;;;25.05;37.98
51315;BME280;65787;59.922;10.742;2023-08-07T06:23:10;98999.94;;;25.05;37.79
51315;BME280;65787;59.922;10.742;2023-08-07T06:25:35;98999.81;;;25.02;37.88
51315;BME280;65787;59.922;10.742;2023-08-07T06:28:00;98997.19;;;25.05;37.57
51315;BME280;65787;59.922;10.742;2023-08-07T06:30:26;98983.13;;;25.07;37.72
51315;BME280;65787;59.922;10.742;2023-08-07T06:32:51;98974.88;;;25.07;37.95
51315;BME280;65787;59.922;10.742;2023-08-07T06:35:16;98981.69;;;25.09;38.13
51315;BME280;65787;59.922;10.742;2023-08-07T06:37:41;98971.16;;;25.11;38.16
51315;BME280;65787;59.922;10.742;2023-08-07T06:40:07;98977.31;;;25.08;37.91
51315;BME280;65787;59.922;10.742;2023-08-07T06:42:32;98979.09;;;25.13;37.99
51315;BME280;65787;59.922;10.742;2023-08-07T06:44:58;98978.94;;;25.09;38.10
51315;BME280;65787;59.922;10.742;2023-08-07T06:47:23;98946.91;;;25.14;37.87
51315;BME280;65787;59.922;10.742;2023-08-07T06:49:48;98942.53;;;25.12;37.79
51315;BME280;65787;59.922;10.742;2023-08-07T06:52:14;98945.91;;;25.18;37.93
51315;BME280;65787;59.922;10.742;2023-08-07T06:54:39;98951.56;;;25.22;37.79
51315;BME280;65787;59.922;10.742;2023-08-07T06:57:05;98955.63;;;25.16;38.43
51315;BME280;65787;59.922;10.742;2023-08-07T06:59:30;98956.09;;;25.18;38.04
51315;BME280;65787;59.922;10.742;2023-08-07T07:01:56;98959.81;;;25.22;38.05
51315;BME280;65787;59.922;10.742;2023-08-07T07:04:21;98960.63;;;25.22;38.40
51315;BME280;65787;59.922;10.742;2023-08-07T07:06:50;98951.75;;;25.25;38.27
51315;BME280;65787;59.922;10.742;2023-08-07T07:09:16;98946.25;;;25.25;38.16
51315;BME280;65787;59.922;10.742;2023-08-07T07:11:42;98935.59;;;25.24;38.17
51315;BME280;65787;59.922;10.742;2023-08-07T07:14:08;98944.44;;;25.29;37.65
51315;BME280;65787;59.922;10.742;2023-08-07T07:16:34;98931.84;;;25.37;37.93
51315;BME280;65787;59.922;10.742;2023-08-07T07:19:01;98928.25;;;25.37;38.36
51315;BME280;65787;59.922;10.742;2023-08-07T07:21:26;98936.50;;;25.37;38.08
51315;BME280;65787;59.922;10.742;2023-08-07T07:23:51;98937.94;;;25.43;38.14
51315;BME280;65787;59.922;10.742;2023-08-07T07:26:16;98933.59;;;25.42;38.23
51315;BME280;65787;59.922;10.742;2023-08-07T07:28:42;98918.72;;;25.43;37.94
51315;BME280;65787;59.922;10.742;2023-08-07T07:31:07;98924.88;;;25.40;37.81
51315;BME280;65787;59.922;10.742;2023-08-07T07:33:36;98922.13;;;25.40;38.31
51315;BME280;65787;59.922;10.742;2023-08-07T07:36:02;98916.44;;;25.45;38.12
51315;BME280;65787;59.922;10.742;2023-08-07T07:38:27;98916.59;;;25.48;37.87
51315;BME280;65787;59.922;10.742;2023-08-07T07:40:53;98905.94;;;25.38;38.00
51315;BME280;65787;59.922;10.742;2023-08-07T07:43:22;98908.34;;;25.48;37.86
51315;BME280;65787;59.922;10.742;2023-08-07T07:45:47;98909.59;;;25.51;38.01
51315;BME280;65787;59.922;10.742;2023-08-07T07:48:12;98902.78;;;25.57;37.97
51315;BME280;65787;59.922;10.742;2023-08-07T07:50:38;98897.28;;;25.57;37.55
51315;BME280;65787;59.922;10.742;2023-08-07T07:53:03;98895.72;;;25.47;38.20
51315;BME280;65787;59.922;10.742;2023-08-07T07:55:28;98895.22;;;25.54;38.20
51315;BME280;65787;59.922;10.742;2023-08-07T07:57:54;98888.22;;;25.57;37.70
51315;BME280;65787;59.922;10.742;2023-08-07T08:00:19;98880.59;;;25.62;37.67
51315;BME280;65787;59.922;10.742;2023-08-07T08:02:50;98880.44;;;25.59;38.32
51315;BME280;65787;59.922;10.742;2023-08-07T08:05:15;98877.66;;;25.67;37.82
51315;BME280;65787;59.922;10.742;2023-08-07T08:07:41;98870.94;;;25.77;37.62
51315;BME280;65787;59.922;10.742;2023-08-07T08:10:07;98870.16;;;25.77;37.48
51315;BME280;65787;59.922;10.742;2023-08-07T08:12:35;98866.94;;;25.75;37.81
51315;BME280;65787;59.922;10.742;2023-08-07T08:15:01;98858.34;;;25.76;37.93
51315;BME280;65787;59.922;10.742;2023-08-07T08:17:26;98857.75;;;25.71;37.95
51315;BME280;65787;59.922;10.742;2023-08-07T08:19:51;98848.16;;;25.77;37.78
51315;BME280;65787;59.922;10.742;2023-08-07T08:22:17;98846.66;;;25.79;37.66
51315;BME280;65787;59.922;10.742;2023-08-07T08:24:42;98841.50;;;25.78;37.97
51315;BME280;65787;59.922;10.742;2023-08-07T08:27:07;98836.59;;;25.83;37.73
51315;BME280;65787;59.922;10.742;2023-08-07T08:29:33;98825.28;;;25.85;37.79
51315;BME280;65787;59.922;10.742;2023-08-07T08:31:58;98829.44;;;25.91;38.18
51315;BME280;65787;59.922;10.742;2023-08-07T08:34:25;98816.88;;;25.81;38.36
51315;BME280;65787;59.922;10.742;2023-08-07T08:36:50;98811.75;;;25.80;38.17
51315;BME280;65787;59.922;10.742;2023-08-07T08:39:15;98812.41;;;25.77;38.71
51315;BME280;65787;59.922;10.742;2023-08-07T08:41:41;98804.22;;;25.68;38.41
51315;BME280;65787;59.922;10.742;2023-08-07T08:44:10;98808.25;;;25.71;38.44
51315;BME280;65787;59.922;10.742;2023-08-07T08:46:37;98811.66;;;25.67;38.97
51315;BME280;65787;59.922;10.742;2023-08-07T08:49:03;98802.88;;;25.74;38.83
51315;BME280;65787;59.922;10.742;2023-08-07T08:51:29;98802.88;;;25.74;38.82
51315;BME280;65787;59.922;10.742;2023-08-07T08:53:55;98813.94;;;25.65;38.79
51315;BME280;65787;59.922;10.742;2023-08-07T08:56:22;98813.63;;;25.67;39.05
51315;BME280;65787;59.922;10.742;2023-08-07T08:58:47;98814.41;;;25.67;39.05
51315;BME280;65787;59.922;10.742;2023-08-07T09:01:13;98803.81;;;25.57;39.49
51315;BME280;65787;59.922;10.742;2023-08-07T09:03:38;98808.31;;;25.62;39.03
51315;BME280;65787;59.922;10.742;2023-08-07T09:06:07;98815.41;;;25.63;39.30
51315;BME280;65787;59.922;10.742;2023-08-07T09:08:33;98801.78;;;25.66;39.34
51315;BME280;65787;59.922;10.742;2023-08-07T09:10:59;98807.44;;;25.70;39.45
51315;BME280;65787;59.922;10.742;2023-08-07T09:13:25;98796.56;;;25.74;39.17
51315;BME280;65787;59.922;10.742;2023-08-07T09:15:52;98796.56;;;25.74;39.55
51315;BME280;65787;59.922;10.742;2023-08-07T09:18:18;98787.84;;;25.72;39.45
51315;BME280;65787;59.922;10.742;2023-08-07T09:20:46;98782.34;;;25.72;39.58
51315;BME280;65787;59.922;10.742;2023-08-07T09:23:11;98790.06;;;25.78;39.56
51315;BME280;65787;59.922;10.742;2023-08-07T09:25:37;98809.53;;;25.73;39.39
51315;BME280;65787;59.922;10.742;2023-08-07T09:28:05;98836.28;;;25.64;39.79
51315;BME280;65787;59.922;10.742;2023-08-07T09:30:31;98872.53;;;25.57;40.86
51315;BME280;65787;59.922;10.742;2023-08-07T09:32:57;98869.41;;;25.38;42.42
51315;BME280;65787;59.922;10.742;2023-08-07T09:35:23;98873.91;;;25.04;44.73
51315;BME280;65787;59.922;10.742;2023-08-07T09:37:49;98871.44;;;24.72;46.81
51315;BME280;65787;59.922;10.742;2023-08-07T09:40:15;98858.56;;;24.56;47.17
51315;BME280;65787;59.922;10.742;2023-08-07T09:42:41;98843.03;;;24.51;47.74
51315;BME280;65787;59.922;10.742;2023-08-07T09:45:19;98830.59;;;24.62;48.21
51315;BME280;65787;59.922;10.742;2023-08-07T09:47:44;98840.53;;;24.84;48.49
51315;BME280;65787;59.922;10.742;2023-08-07T09:50:15;98836.13;;;24.92;48.10
51315;BME280;65787;59.922;10.742;2023-08-07T09:52:40;98813.50;;;25.04;48.14
51315;BME280;65787;59.922;10.742;2023-08-07T09:55:05;98822.69;;;25.08;47.61
51315;BME280;65787;59.922;10.742;2023-08-07T09:57:31;98832.34;;;25.14;47.37
51315;BME280;65787;59.922;10.742;2023-08-07T09:59:57;98835.06;;;25.14;46.68
51315;BME280;65787;59.922;10.742;2023-08-07T10:02:22;98834.91;;;25.19;46.66
51315;BME280;65787;59.922;10.742;2023-08-07T10:04:48;98828.44;;;25.24;46.74
51315;BME280;65787;59.922;10.742;2023-08-07T10:07:13;98836.81;;;25.27;46.76
51315;BME280;65787;59.922;10.742;2023-08-07T10:09:40;98838.25;;;25.34;47.03
51315;BME280;65787;59.922;10.742;2023-08-07T10:12:06;98833.56;;;25.34;46.75
51315;BME280;65787;59.922;10.742;2023-08-07T10:14:31;98831.41;;;25.40;46.74
51315;BME280;65787;59.922;10.742;2023-08-07T10:16:57;98820.69;;;25.47;46.96
51315;BME280;65787;59.922;10.742;2023-08-07T10:19:22;98817.97;;;25.47;46.74
51315;BME280;65787;59.922;10.742;2023-08-07T10:21:47;98809.84;;;25.50;46.85
51315;BME280;65787;59.922;10.742;2023-08-07T10:24:13;98811.25;;;25.57;47.20
51315;BME280;65787;59.922;10.742;2023-08-07T10:26:44;98807.25;;;25.54;47.03
51315;BME280;65787;59.922;10.742;2023-08-07T10:29:12;98803.53;;;25.50;47.13
51315;BME280;65787;59.922;10.742;2023-08-07T10:31:38;98794.94;;;25.52;47.06
51315;BME280;65787;59.922;10.742;2023-08-07T10:34:06;98806.28;;;25.50;47.06
51315;BME280;65787;59.922;10.742;2023-08-07T10:36:32;98792.66;;;25.54;47.17
51315;BME280;65787;59.922;10.742;2023-08-07T10:39:09;98772.91;;;25.60;47.49
51315;BME280;65787;59.922;10.742;2023-08-07T10:41:41;98761.25;;;25.63;46.67
51315;BME280;65787;59.922;10.742;2023-08-07T10:44:23;98751.50;;;25.66;46.87
51315;BME280;65787;59.922;10.742;2023-08-07T10:46:49;98730.09;;;25.72;47.02
51315;BME280;65787;59.922;10.742;2023-08-07T10:49:30;98722.91;;;25.79;46.87
51315;BME280;65787;59.922;10.742;2023-08-07T10:52:01;98711.78;;;25.76;46.94
51315;BME280;65787;59.922;10.742;2023-08-07T10:54:27;98710.00;;;25.80;46.91
51315;BME280;65787;59.922;10.742;2023-08-07T10:56:54;98702.66;;;25.84;46.47
51315;BME280;65787;59.922;10.742;2023-08-07T10:59:22;98694.94;;;25.77;46.37
51315;BME280;65787;59.922;10.742;2023-08-07T11:01:51;98686.63;;;25.86;47.17
51315;BME280;65787;59.922;10.742;2023-08-07T11:04:16;98680.72;;;25.96;47.02
51315;BME280;65787;59.922;10.742;2023-08-07T11:06:42;98671.78;;;25.99;46.71
51315;BME280;65787;59.922;10.742;2023-08-07T11:09:08;98644.00;;;25.80;46.76
51315;BME280;65787;59.922;10.742;2023-08-07T11:14:05;98689.78;;;25.97;47.27
51315;BME280;65787;59.922;10.742;2023-08-07T11:16:31;98685.75;;;25.94;46.25
51315;BME280;65787;59.922;10.742;2023-08-07T11:18:56;98690.84;;;26.04;47.04
51315;BME280;65787;59.922;10.742;2023-08-07T11:21:21;98690.97;;;26.08;46.64
51315;BME280;65787;59.922;10.742;2023-08-07T11:23:47;98686.41;;;26.24;47.23
51315;BME280;65787;59.922;10.742;2023-08-07T11:26:12;98686.28;;;26.33;47.24
51315;BME280;65787;59.922;10.742;2023-08-07T11:28:37;98685.81;;;26.31;46.74
51315;BME280;65787;59.922;10.742;2023-08-07T11:31:02;98681.69;;;26.37;46.87
51315;BME280;65787;59.922;10.742;2023-08-07T11:33:28;98681.81;;;26.29;45.96
51315;BME280;65787;59.922;10.742;2023-08-07T11:35:54;98670.69;;;26.25;45.91
51315;BME280;65787;59.922;10.742;2023-08-07T11:38:38;98670.81;;;26.29;46.50
51315;BME280;65787;59.922;10.742;2023-08-07T11:41:05;98658.44;;;26.47;46.76
51315;BME280;65787;59.922;10.742;2023-08-07T11:43:31;98665.63;;;26.52;46.07
51315;BME280;65787;59.922;10.742;2023-08-07T11:45:57;98675.84;;;26.51;45.42
51315;BME280;65787;59.922;10.742;2023-08-07T11:48:23;98667.25;;;26.53;45.35
51315;BME280;65787;59.922;10.742;2023-08-07T11:50:53;98666.00;;;26.38;46.03
51315;BME280;65787;59.922;10.742;2023-08-07T11:53:19;98652.81;;;26.43;46.51
51315;BME280;65787;59.922;10.742;2023-08-07T11:56:03;98668.41;;;26.39;45.04
51315;BME280;65787;59.922;10.742;2023-08-07T11:58:33;98677.13;;;26.41;46.36
51315;BME280;65787;59.922;10.742;2023-08-07T12:01:01;98659.34;;;26.51;46.02
51315;BME280;65787;59.922;10.742;2023-08-07T12:03:29;98661.88;;;26.69;46.48
51315;BME280;65787;59.922;10.742;2023-08-07T12:05:55;98668.88;;;26.78;45.75
51315;BME280;65787;59.922;10.742;2023-08-07T12:08:41;98661.97;;;26.97;45.77
51315;BME280;65787;59.922;10.742;2023-08-07T12:11:10;98671.59;;;27.03;45.67
51315;BME280;65787;59.922;10.742;2023-08-07T12:13:36;98656.66;;;27.04;45.89
51315;BME280;65787;59.922;10.742;2023-08-07T12:16:02;98649.44;;;26.99;44.78
51315;BME280;65787;59.922;10.742;2023-08-07T12:18:29;98654.28;;;27.02;44.82
51315;BME280;65787;59.922;10.742;2023-08-07T12:21:04;98650.78;;;27.06;45.56
51315;BME280;65787;59.922;10.742;2023-08-07T12:23:34;98652.41;;;27.07;45.31
51315;BME280;65787;59.922;10.742;2023-08-07T12:25:59;98655.50;;;27.05;45.60
51315;BME280;65787;59.922;10.742;2023-08-07T12:28:25;98654.16;;;26.99;45.39
51315;BME280;65787;59.922;10.742;2023-08-07T12:30:50;98648.28;;;27.00;45.34
51315;BME280;65787;59.922;10.742;2023-08-07T12:33:16;98638.41;;;27.12;44.35
51315;BME280;65787;59.922;10.742;2023-08-07T12:35:41;98644.19;;;27.22;45.01
51315;BME280;65787;59.922;10.742;2023-08-07T12:38:07;98641.88;;;27.37;45.06
51315;BME280;65787;59.922;10.742;2023-08-07T12:40:33;98635.16;;;27.50;45.02
51315;BME280;65787;59.922;10.742;2023-08-07T12:43:01;98634.13;;;27.55;44.93
51315;BME280;65787;59.922;10.742;2023-08-07T12:45:26;98641.41;;;27.63;45.21
51315;BME280;65787;59.922;10.742;2023-08-07T12:47:52;98643.28;;;27.59;44.76